Samus Swan — 9HA2333 — position and weather

sailwx.info

Track history (hours):
 
Tides and Currents Weather Stations Pressure Air Temp Water Temp Dewpoint Dewpoint Depression Visibility Wind Speed Wind Dir Waves Ship Positions

Samus Swan

Last reported at 2017-Aug-22 15:25 UTC. Time now 2017-Aug-22 16:49 UTC.
Position N 35°58' W 005°38'.

Length 106 m; draft 5.9 m.

Type: Tanker. MMSI: 248363000.

Date/timePositionNaut miles runAvg speedWind from/ knotsBaromVisibWave heightAir tempDewpointWater temp
2017-Aug-22 15:25N 35°58' W 005°38'511.1
2017-Aug-22 14:59N 35°59' W 005°32'710.9
2017-Aug-22 14:20N 36°02' W 005°25'411.7
2017-Aug-22 13:59N 36°06' W 005°24'4 0.4
2017-Aug-22 04:03N 36°11' W 005°24'0 0.1
2017-Aug-22 03:57N 36°11' W 005°24'0 0.0
2017-Aug-22 03:30N 36°11' W 005°24'0 0.0
2017-Aug-22 02:57N 36°11' W 005°24'0 0.0
2017-Aug-22 02:27N 36°11' W 005°24'0 0.0
2017-Aug-22 01:51N 36°11' W 005°24'0 0.0
2017-Aug-22 01:27N 36°11' W 005°24'0 0.0
2017-Aug-22 00:57N 36°11' W 005°24'0 0.0
2017-Aug-22 00:24N 36°11' W 005°24'0 0.0
2017-Aug-21 23:57N 36°11' W 005°24'0 0.0
2017-Aug-21 23:27N 36°11' W 005°24'0 0.0
2017-Aug-21 22:57N 36°11' W 005°24'0 0.0
2017-Aug-21 22:24N 36°11' W 005°24'0 0.0
2017-Aug-21 21:57N 36°11' W 005°24'0 0.0
2017-Aug-21 21:27N 36°11' W 005°24'0 0.0
2017-Aug-21 20:51N 36°11' W 005°24'0 0.0
2017-Aug-21 20:27N 36°11' W 005°24'1 0.1
2017-Aug-21 05:02N 36°10' W 005°26'0 0.1
2017-Aug-21 04:50N 36°10' W 005°26'0 0.0
2017-Aug-21 04:29N 36°10' W 005°26'0 0.0
2017-Aug-21 02:38N 36°10' W 005°26'0 0.0
2017-Aug-21 01:44N 36°10' W 005°26'0 0.0
2017-Aug-21 01:29N 36°10' W 005°26'0 0.0
2017-Aug-21 00:59N 36°10' W 005°26'0 0.0
2017-Aug-20 23:41N 36°10' W 005°26'0 0.1
2017-Aug-20 23:29N 36°10' W 005°26'0 0.0
2017-Aug-20 22:56N 36°10' W 005°26'1 1.8
2017-Aug-20 22:27N 36°09' W 005°25'2 3.7
2017-Aug-20 21:59N 36°08' W 005°24'3 6.6
2017-Aug-20 21:30N 36°05' W 005°22'22110.7
2017-Aug-20 00:56N 36°36' W 000°51'511.8
2017-Aug-20 00:30N 36°36' W 000°44'611.6
2017-Aug-19 23:59N 36°37' W 000°37'711.5
2017-Aug-19 23:22N 36°38' W 000°28'411.8
2017-Aug-19 23:00N 36°39' W 000°23'612.1
2017-Aug-19 22:30N 36°40' W 000°16'612.1
2017-Aug-19 22:00N 36°41' W 000°08'611.9
2017-Aug-19 21:30N 36°42' W 000°01'611.7
2017-Aug-19 21:00N 36°43' E 000°06'611.7
2017-Aug-19 20:30N 36°44' E 000°13'611.8
2017-Aug-19 20:00N 36°45' E 000°21'611.8
2017-Aug-19 19:30N 36°46' E 000°28'611.8
2017-Aug-19 19:00N 36°46' E 000°35'611.7
2017-Aug-19 18:30N 36°47' E 000°43'611.7
2017-Aug-19 18:00N 36°48' E 000°50'1012.0
2017-Aug-19 17:08N 36°49' E 001°03'212.4
2017-Aug-19 16:59N 36°50' E 001°05'612.9
2017-Aug-19 16:29N 36°51' E 001°13'613.0
2017-Aug-19 16:00N 36°52' E 001°21'712.8
2017-Aug-19 15:26N 36°53' E 001°30'812.7
2017-Aug-19 14:50N 36°54' E 001°39'1012.6
2017-Aug-19 14:00N 36°55' E 001°52'4212.1
2017-Aug-19 10:30N 37°01' E 002°45'4311.5
2017-Aug-19 06:45N 37°08' E 003°38'411.5
2017-Aug-19 06:23N 37°08' E 003°43'511.4
2017-Aug-19 05:59N 37°09' E 003°49'511.4
2017-Aug-19 05:30N 37°09' E 003°56'611.7
2017-Aug-19 05:00N 37°10' E 004°03'611.6
2017-Aug-19 04:30N 37°11' E 004°10'711.3
2017-Aug-19 03:53N 37°12' E 004°19'611.3
2017-Aug-19 03:23N 37°13' E 004°26'511.3
2017-Aug-19 02:57N 37°13' E 004°32'511.2
2017-Aug-19 02:30N 37°14' E 004°38'611.4
2017-Aug-19 02:00N 37°14' E 004°45'611.2
2017-Aug-19 01:30N 37°14' E 004°52'611.3
2017-Aug-19 01:00N 37°15' E 004°59'611.7
2017-Aug-19 00:30N 37°16' E 005°07'711.5
2017-Aug-18 23:56N 37°17' E 005°15'511.6
2017-Aug-18 23:30N 37°17' E 005°21'611.6
2017-Aug-18 23:00N 37°18' E 005°28'611.7
2017-Aug-18 22:30N 37°19' E 005°35'611.8
2017-Aug-18 22:00N 37°19' E 005°43'612.0
2017-Aug-18 21:30N 37°20' E 005°51'612.3
2017-Aug-18 21:00N 37°21' E 005°58'612.1
2017-Aug-18 20:30N 37°21' E 006°06'711.8
2017-Aug-18 19:55N 37°22' E 006°14'612.0
2017-Aug-18 19:27N 37°23' E 006°21'511.6
2017-Aug-18 19:00N 37°24' E 006°28'611.4
2017-Aug-18 18:30N 37°25' E 006°35'611.5
2017-Aug-18 18:00N 37°25' E 006°42'611.5
2017-Aug-18 17:30N 37°26' E 006°49'611.4
2017-Aug-18 17:00N 37°26' E 006°56'611.5
2017-Aug-18 16:30N 37°27' E 007°04'611.5
2017-Aug-18 16:00N 37°28' E 007°11'1611.2
2017-Aug-18 14:34N 37°30' E 007°31'311.2
2017-Aug-18 14:19N 37°30' E 007°35'3111.8
2017-Aug-18 11:43N 37°34' E 008°13'412.2
2017-Aug-18 11:25N 37°34' E 008°18'612.2
2017-Aug-18 10:58N 37°34' E 008°25'612.1
2017-Aug-18 10:30N 37°35' E 008°31'611.9
2017-Aug-18 10:00N 37°36' E 008°39'711.7
2017-Aug-18 09:24N 37°36' E 008°48'3211.2
2017-Aug-18 06:33N 37°38' E 009°28'411.2
2017-Aug-18 06:12N 37°38' E 009°33'211.2
2017-Aug-18 06:00N 37°38' E 009°36'610.9
2017-Aug-18 05:30N 37°38' E 009°43'611.1
2017-Aug-18 05:00N 37°39' E 009°50'611.2
2017-Aug-18 04:30N 37°39' E 009°57'611.2
2017-Aug-18 04:00N 37°39' E 010°04'611.3
2017-Aug-18 03:30N 37°39' E 010°11'611.2
2017-Aug-18 03:00N 37°39' E 010°18'611.2
2017-Aug-18 02:28N 37°38' E 010°26'511.3
2017-Aug-18 02:00N 37°37' E 010°32'1311.7
2017-Aug-18 00:55N 37°34' E 010°48'511.6
2017-Aug-18 00:27N 37°33' E 010°54'511.5
2017-Aug-18 00:00N 37°32' E 011°01'2611.4
2017-Aug-17 21:44N 37°24' E 011°32'611.6
2017-Aug-17 21:14N 37°22' E 011°38'1911.4
2017-Aug-17 19:36N 37°16' E 012°00'110.7
2017-Aug-17 19:30N 37°15' E 012°01'710.6
2017-Aug-17 18:51N 37°13' E 012°10'410.2
2017-Aug-17 18:29N 37°12' E 012°14'510.4
2017-Aug-17 18:00N 37°10' E 012°20'510.4
2017-Aug-17 17:30N 37°08' E 012°26'510.3
2017-Aug-17 17:00N 37°07' E 012°32'510.3
2017-Aug-17 16:30N 37°05' E 012°38'510.3
2017-Aug-17 16:00N 37°03' E 012°44'510.4
2017-Aug-17 15:30N 37°01' E 012°50'510.6
2017-Aug-17 15:00N 36°59' E 012°56'510.8
2017-Aug-17 14:30N 36°57' E 013°03'510.9
2017-Aug-17 14:00N 36°55' E 013°09'611.0
2017-Aug-17 13:30N 36°53' E 013°16'611.1
2017-Aug-17 13:00N 36°51' E 013°22'611.1
2017-Aug-17 12:30N 36°49' E 013°29'611.1
2017-Aug-17 12:00N 36°47' E 013°35'611.2
2017-Aug-17 11:30N 36°45' E 013°41'611.2
2017-Aug-17 11:00N 36°43' E 013°48'611.2
2017-Aug-17 10:30N 36°41' E 013°55'611.2
2017-Aug-17 10:00N 36°39' E 014°01'611.2
2017-Aug-17 09:30N 36°37' E 014°07'511.0
2017-Aug-17 09:00N 36°35' E 014°14'510.8
2017-Aug-17 08:30N 36°33' E 014°20'510.8
2017-Aug-17 08:00N 36°31' E 014°26'510.7
2017-Aug-17 07:30N 36°30' E 014°33'510.6
2017-Aug-17 07:00N 36°29' E 014°39'510.6
2017-Aug-17 06:30N 36°29' E 014°46'510.5
2017-Aug-17 06:00N 36°29' E 014°52'611.0
2017-Aug-17 05:30N 36°28' E 014°59'611.2
2017-Aug-17 05:00N 36°29' E 015°06'611.8
2017-Aug-17 04:30N 36°29' E 015°14'611.2
2017-Aug-17 04:00N 36°28' E 015°21'611.0
2017-Aug-17 03:30N 36°28' E 015°27'511.1
2017-Aug-17 03:00N 36°28' E 015°34'510.9
2017-Aug-17 02:30N 36°28' E 015°41'610.9
2017-Aug-17 02:00N 36°28' E 015°48'511.0
2017-Aug-17 01:30N 36°28' E 015°55'511.0
2017-Aug-17 01:00N 36°28' E 016°01'395 9.3
2017-Aug-15 06:41N 37°34' E 024°09'1110.7
2017-Aug-15 05:39N 37°43' E 024°17'  
Track history (hours):
 
Tides and Currents Weather Stations Pressure Air Temp Water Temp Dewpoint Dewpoint Depression Visibility Wind Speed Wind Dir Waves Ship Positions

Samus Swan

Last reported at 2017-Aug-22 15:25 UTC. Time now 2017-Aug-22 16:49 UTC.
Position N 35°58' W 005°38'.

Length 106 m; draft 5.9 m.

Type: Tanker. MMSI: 248363000.

Date/timePositionNaut miles runAvg speedWind from/ knotsBaromVisibWave heightAir tempDewpointWater temp
2017-Aug-22 15:25N 35°58' W 005°38'511.1
2017-Aug-22 14:59N 35°59' W 005°32'710.9
2017-Aug-22 14:20N 36°02' W 005°25'411.7
2017-Aug-22 13:59N 36°06' W 005°24'4 0.4
2017-Aug-22 04:03N 36°11' W 005°24'0 0.1
2017-Aug-22 03:57N 36°11' W 005°24'0 0.0
2017-Aug-22 03:30N 36°11' W 005°24'0 0.0
2017-Aug-22 02:57N 36°11' W 005°24'0 0.0
2017-Aug-22 02:27N 36°11' W 005°24'0 0.0
2017-Aug-22 01:51N 36°11' W 005°24'0 0.0
2017-Aug-22 01:27N 36°11' W 005°24'0 0.0
2017-Aug-22 00:57N 36°11' W 005°24'0 0.0
2017-Aug-22 00:24N 36°11' W 005°24'0 0.0
2017-Aug-21 23:57N 36°11' W 005°24'0 0.0
2017-Aug-21 23:27N 36°11' W 005°24'0 0.0
2017-Aug-21 22:57N 36°11' W 005°24'0 0.0
2017-Aug-21 22:24N 36°11' W 005°24'0 0.0
2017-Aug-21 21:57N 36°11' W 005°24'0 0.0
2017-Aug-21 21:27N 36°11' W 005°24'0 0.0
2017-Aug-21 20:51N 36°11' W 005°24'0 0.0
2017-Aug-21 20:27N 36°11' W 005°24'1 0.1
2017-Aug-21 05:02N 36°10' W 005°26'0 0.1
2017-Aug-21 04:50N 36°10' W 005°26'0 0.0
2017-Aug-21 04:29N 36°10' W 005°26'0 0.0
2017-Aug-21 02:38N 36°10' W 005°26'0 0.0
2017-Aug-21 01:44N 36°10' W 005°26'0 0.0
2017-Aug-21 01:29N 36°10' W 005°26'0 0.0
2017-Aug-21 00:59N 36°10' W 005°26'0 0.0
2017-Aug-20 23:41N 36°10' W 005°26'0 0.1
2017-Aug-20 23:29N 36°10' W 005°26'0 0.0
2017-Aug-20 22:56N 36°10' W 005°26'1 1.8
2017-Aug-20 22:27N 36°09' W 005°25'2 3.7
2017-Aug-20 21:59N 36°08' W 005°24'3 6.6
2017-Aug-20 21:30N 36°05' W 005°22'22110.7
2017-Aug-20 00:56N 36°36' W 000°51'511.8
2017-Aug-20 00:30N 36°36' W 000°44'611.6
2017-Aug-19 23:59N 36°37' W 000°37'711.5
2017-Aug-19 23:22N 36°38' W 000°28'411.8
2017-Aug-19 23:00N 36°39' W 000°23'612.1
2017-Aug-19 22:30N 36°40' W 000°16'612.1
2017-Aug-19 22:00N 36°41' W 000°08'611.9
2017-Aug-19 21:30N 36°42' W 000°01'611.7
2017-Aug-19 21:00N 36°43' E 000°06'611.7
2017-Aug-19 20:30N 36°44' E 000°13'611.8
2017-Aug-19 20:00N 36°45' E 000°21'611.8
2017-Aug-19 19:30N 36°46' E 000°28'611.8
2017-Aug-19 19:00N 36°46' E 000°35'611.7
2017-Aug-19 18:30N 36°47' E 000°43'611.7
2017-Aug-19 18:00N 36°48' E 000°50'1012.0
2017-Aug-19 17:08N 36°49' E 001°03'212.4
2017-Aug-19 16:59N 36°50' E 001°05'612.9
2017-Aug-19 16:29N 36°51' E 001°13'613.0
2017-Aug-19 16:00N 36°52' E 001°21'712.8
2017-Aug-19 15:26N 36°53' E 001°30'812.7
2017-Aug-19 14:50N 36°54' E 001°39'1012.6
2017-Aug-19 14:00N 36°55' E 001°52'4212.1
2017-Aug-19 10:30N 37°01' E 002°45'4311.5
2017-Aug-19 06:45N 37°08' E 003°38'411.5
2017-Aug-19 06:23N 37°08' E 003°43'511.4
2017-Aug-19 05:59N 37°09' E 003°49'511.4
2017-Aug-19 05:30N 37°09' E 003°56'611.7
2017-Aug-19 05:00N 37°10' E 004°03'611.6
2017-Aug-19 04:30N 37°11' E 004°10'711.3
2017-Aug-19 03:53N 37°12' E 004°19'611.3
2017-Aug-19 03:23N 37°13' E 004°26'511.3
2017-Aug-19 02:57N 37°13' E 004°32'511.2
2017-Aug-19 02:30N 37°14' E 004°38'611.4
2017-Aug-19 02:00N 37°14' E 004°45'611.2
2017-Aug-19 01:30N 37°14' E 004°52'611.3
2017-Aug-19 01:00N 37°15' E 004°59'611.7
2017-Aug-19 00:30N 37°16' E 005°07'711.5
2017-Aug-18 23:56N 37°17' E 005°15'511.6
2017-Aug-18 23:30N 37°17' E 005°21'611.6
2017-Aug-18 23:00N 37°18' E 005°28'611.7
2017-Aug-18 22:30N 37°19' E 005°35'611.8
2017-Aug-18 22:00N 37°19' E 005°43'612.0
2017-Aug-18 21:30N 37°20' E 005°51'612.3
2017-Aug-18 21:00N 37°21' E 005°58'612.1
2017-Aug-18 20:30N 37°21' E 006°06'711.8
2017-Aug-18 19:55N 37°22' E 006°14'612.0
2017-Aug-18 19:27N 37°23' E 006°21'511.6
2017-Aug-18 19:00N 37°24' E 006°28'611.4
2017-Aug-18 18:30N 37°25' E 006°35'611.5
2017-Aug-18 18:00N 37°25' E 006°42'611.5
2017-Aug-18 17:30N 37°26' E 006°49'611.4
2017-Aug-18 17:00N 37°26' E 006°56'611.5
2017-Aug-18 16:30N 37°27' E 007°04'611.5
2017-Aug-18 16:00N 37°28' E 007°11'1611.2
2017-Aug-18 14:34N 37°30' E 007°31'311.2
2017-Aug-18 14:19N 37°30' E 007°35'3111.8
2017-Aug-18 11:43N 37°34' E 008°13'412.2
2017-Aug-18 11:25N 37°34' E 008°18'612.2
2017-Aug-18 10:58N 37°34' E 008°25'612.1
2017-Aug-18 10:30N 37°35' E 008°31'611.9
2017-Aug-18 10:00N 37°36' E 008°39'711.7
2017-Aug-18 09:24N 37°36' E 008°48'3211.2
2017-Aug-18 06:33N 37°38' E 009°28'411.2
2017-Aug-18 06:12N 37°38' E 009°33'211.2
2017-Aug-18 06:00N 37°38' E 009°36'610.9
2017-Aug-18 05:30N 37°38' E 009°43'611.1
2017-Aug-18 05:00N 37°39' E 009°50'611.2
2017-Aug-18 04:30N 37°39' E 009°57'611.2
2017-Aug-18 04:00N 37°39' E 010°04'611.3
2017-Aug-18 03:30N 37°39' E 010°11'611.2
2017-Aug-18 03:00N 37°39' E 010°18'611.2
2017-Aug-18 02:28N 37°38' E 010°26'511.3
2017-Aug-18 02:00N 37°37' E 010°32'1311.7
2017-Aug-18 00:55N 37°34' E 010°48'511.6
2017-Aug-18 00:27N 37°33' E 010°54'511.5
2017-Aug-18 00:00N 37°32' E 011°01'2611.4
2017-Aug-17 21:44N 37°24' E 011°32'611.6
2017-Aug-17 21:14N 37°22' E 011°38'1911.4
2017-Aug-17 19:36N 37°16' E 012°00'110.7
2017-Aug-17 19:30N 37°15' E 012°01'710.6
2017-Aug-17 18:51N 37°13' E 012°10'410.2
2017-Aug-17 18:29N 37°12' E 012°14'510.4
2017-Aug-17 18:00N 37°10' E 012°20'510.4
2017-Aug-17 17:30N 37°08' E 012°26'510.3
2017-Aug-17 17:00N 37°07' E 012°32'510.3
2017-Aug-17 16:30N 37°05' E 012°38'510.3
2017-Aug-17 16:00N 37°03' E 012°44'510.4
2017-Aug-17 15:30N 37°01' E 012°50'510.6
2017-Aug-17 15:00N 36°59' E 012°56'510.8
2017-Aug-17 14:30N 36°57' E 013°03'510.9
2017-Aug-17 14:00N 36°55' E 013°09'611.0
2017-Aug-17 13:30N 36°53' E 013°16'611.1
2017-Aug-17 13:00N 36°51' E 013°22'611.1
2017-Aug-17 12:30N 36°49' E 013°29'611.1
2017-Aug-17 12:00N 36°47' E 013°35'611.2
2017-Aug-17 11:30N 36°45' E 013°41'611.2
2017-Aug-17 11:00N 36°43' E 013°48'611.2
2017-Aug-17 10:30N 36°41' E 013°55'611.2
2017-Aug-17 10:00N 36°39' E 014°01'611.2
2017-Aug-17 09:30N 36°37' E 014°07'511.0
2017-Aug-17 09:00N 36°35' E 014°14'510.8
2017-Aug-17 08:30N 36°33' E 014°20'510.8
2017-Aug-17 08:00N 36°31' E 014°26'510.7
2017-Aug-17 07:30N 36°30' E 014°33'510.6
2017-Aug-17 07:00N 36°29' E 014°39'510.6
2017-Aug-17 06:30N 36°29' E 014°46'510.5
2017-Aug-17 06:00N 36°29' E 014°52'611.0
2017-Aug-17 05:30N 36°28' E 014°59'611.2
2017-Aug-17 05:00N 36°29' E 015°06'611.8
2017-Aug-17 04:30N 36°29' E 015°14'611.2
2017-Aug-17 04:00N 36°28' E 015°21'611.0
2017-Aug-17 03:30N 36°28' E 015°27'511.1
2017-Aug-17 03:00N 36°28' E 015°34'510.9
2017-Aug-17 02:30N 36°28' E 015°41'610.9
2017-Aug-17 02:00N 36°28' E 015°48'511.0
2017-Aug-17 01:30N 36°28' E 015°55'511.0
2017-Aug-17 01:00N 36°28' E 016°01'395 9.3
2017-Aug-15 06:41N 37°34' E 024°09'1110.7
2017-Aug-15 05:39N 37°43' E 024°17'  

Dump ship's entire track history